Flight Track Log - Related Links

Times and Time Zones

All times are in EDT time to prevent confusion due to time zone crossing. See the UAL4118 flight status page for this flight to view local times or setup timezone preferences in your user account.

Time Position Orientation Groundspeed Altitude Reporting Facility
EDT Latitude Longitude Course Direction KTS MPH feet Rate Location/Type
Sun 04:14:52 PM 29.9617 -95.3436 27° Northeast 168 193 700  Level Houston Center
Sun 04:15:48 PM 29.9664 -95.3019 83° East 207 238 2,600 1,974 Climbing Houston Center
Sun 04:16:08 PM 29.9833 -95.2933 24° Northeast 205 236 3,200 2,291 Climbing Houston Center
Sun 04:16:43 PM 30.0225 -95.2736 24° Northeast 268 308 4,700 2,613 Climbing Houston Center
Sun 04:17:10 PM 30.0483 -95.2636 19° North 240 276 5,900 2,494 Climbing Houston Center
Sun 04:18:00 PM 30.3001 -95.2023 14° North  Level FlightAware Approximate
Sun 04:18:12 PM 30.1222 -95.2389 16° North 271 312 8,400  Level Houston Center
Sun 04:19:00 PM 30.3814 -95.1760 23° Northeast  Level FlightAware Approximate
Sun 04:19:14 PM 30.1994 -95.2114 17° North 286 329 10,800  Level Houston Center
Sun 04:20:00 PM 30.4582 -95.1351 27° Northeast  Level FlightAware Approximate
Sun 04:20:16 PM 30.2861 -95.1808 17° North 321 369 12,000  Level Houston Center
Sun 04:21:18 PM 30.3833 -95.1475 16° North 356 410 13,500 1,728 Climbing Houston Center
Sun 04:22:21 PM 30.4989 -95.1056 17° North 365 420 15,600 1,920 Climbing Houston Center
Sun 04:23:23 PM 30.5964 -95.0689 18° North 365 420 17,500 1,597 Climbing Houston Center
Sun 04:24:25 PM 30.6875 -95.0119 28° Northeast 367 422 18,900 726 Climbing Houston Center
Sun 04:25:27 PM 30.7856 -94.9522 28° Northeast 391 450 19,000 48 Climbing Houston Center
Sun 04:26:29 PM 30.9100 -94.8744 28° Northeast 419 482 19,000  Level Houston Center
Sun 04:27:31 PM 31.0128 -94.8106 28° Northeast 419 482 19,000  Level Houston Center
Sun 04:28:33 PM 31.1156 -94.7461 28° Northeast 420 483 19,000  Level Houston Center
Sun 04:29:35 PM 31.2131 -94.6786 31° Northeast 424 488 19,000  Level Houston Center
Sun 04:30:37 PM 31.3331 -94.5997 29° Northeast 424 488 19,000  Level Houston Center
Sun 04:31:18 PM 31.3775 -94.5689 31° Northeast 423 487 19,000  Level Fort Worth Center
Sun 04:32:18 PM 31.4928 -94.4900 30° Northeast 431 496 19,000 -200 Level Fort Worth Center
Sun 04:33:18 PM 31.5933 -94.4208 30° Northeast 431 496 18,600 -1,000 Descending Fort Worth Center
Sun 04:34:18 PM 31.6939 -94.3517 30° Northeast 425 489 17,000 -1,900 Descending Fort Worth Center
Sun 04:35:18 PM 31.7906 -94.2850 30° Northeast 412 474 14,800 -2,000 Descending Fort Worth Center
Sun 04:36:18 PM 31.8847 -94.2206 30° Northeast 400 460 13,000 -900 Descending Fort Worth Center
Sun 04:37:18 PM 31.9875 -94.1483 31° Northeast 393 452 13,000  Level Fort Worth Center
Sun 04:37:42 PM 32.0242 -94.1225 31° Northeast 390 449 13,000  Level Fort Worth Center
Sun 04:38:18 PM 32.0797 -94.0839 30° Northeast 393 452 13,000 -791 Level Fort Worth Center
Sun 04:39:13 PM 32.1514 -94.0347 30° Northeast 343 395 11,800 -1,550 Descending Fort Worth Center
Sun 04:40:18 PM 32.2417 -93.9722 30° Northeast 330 380 9,900 -1,968 Descending Fort Worth Center
Sun 04:41:18 PM 32.3092 -93.9231 32° Northeast 294 338 7,700 -2,300 Descending Fort Worth Center
Sun 04:42:18 PM 32.3750 -93.8933 21° North 264 304 5,300 -2,500 Descending Fort Worth Center
Sun 04:43:18 PM 32.4331 -93.9478 322° Northwest 229 264 2,700 -1,373 Descending Fort Worth Center
Sun 04:44:16 PM 32.4800 -93.9903 323° Northwest 207 238 2,600 -103 Descending Fort Worth Center

Login

Don't have an account? Register now (free) for customized features, flight alerts, and more!